createdAt,value
2023-05-21T00:04:11.876Z,13.76
2023-05-21T00:09:14.686Z,13.77
2023-05-21T00:14:18.852Z,13.79
2023-05-21T00:19:21.724Z,13.80
2023-05-21T00:24:24.586Z,13.87
2023-05-21T00:29:30.164Z,13.93
2023-05-21T00:34:33.485Z,13.93
2023-05-21T00:39:36.554Z,13.91
2023-05-21T00:44:41.339Z,13.93
2023-05-21T00:49:44.262Z,13.90
2023-05-21T00:54:47.986Z,13.86
2023-05-21T00:59:53.879Z,13.83
2023-05-21T01:04:56.753Z,13.88
2023-05-21T01:09:59.590Z,13.91
2023-05-21T01:15:05.131Z,13.93
2023-05-21T01:20:11.155Z,13.86
2023-05-21T01:25:15.560Z,13.76
2023-05-21T01:30:19.689Z,13.71
2023-05-21T01:35:26.195Z,13.65
2023-05-21T01:40:38.288Z,13.62
2023-05-21T01:45:43.323Z,13.57
2023-05-21T01:50:47.357Z,13.54
2023-05-21T01:55:51.705Z,13.47
2023-05-21T02:00:54.781Z,13.43
2023-05-21T02:05:57.756Z,13.39
2023-05-21T02:11:02.000Z,13.38
2023-05-21T02:16:05.260Z,13.35
2023-05-21T02:21:08.156Z,13.30
2023-05-21T02:26:12.393Z,13.30
2023-05-21T02:31:15.435Z,13.24
2023-05-21T02:36:18.977Z,13.23
2023-05-21T02:41:23.382Z,13.23
2023-05-21T02:46:26.620Z,13.21
2023-05-21T02:51:29.537Z,13.17
2023-05-21T02:56:33.766Z,13.10
2023-05-21T03:01:37.436Z,13.02
2023-05-21T03:06:40.412Z,13.01
2023-05-21T03:11:45.170Z,13.01
2023-05-21T03:16:49.165Z,13.07
2023-05-21T03:21:54.628Z,13.09
2023-05-21T03:26:59.201Z,13.11
2023-05-21T03:32:03.040Z,13.09
2023-05-21T03:37:07.658Z,13.02
2023-05-21T03:42:14.088Z,13.03
2023-05-21T03:47:27.519Z,13.07
2023-05-21T03:52:31.023Z,13.05
2023-05-21T03:57:35.926Z,13.10
2023-05-21T04:02:38.976Z,13.19
2023-05-21T04:07:42.966Z,13.23
2023-05-21T04:12:49.171Z,13.19
2023-05-21T04:17:52.406Z,13.28
2023-05-21T04:22:55.514Z,13.35
2023-05-21T04:27:59.985Z,13.40
2023-05-21T04:33:02.967Z,13.44
2023-05-21T04:38:06.652Z,13.52
2023-05-21T04:43:11.427Z,13.59
2023-05-21T04:48:15.814Z,13.71
2023-05-21T04:53:18.930Z,13.82
2023-05-21T04:58:23.180Z,13.84
2023-05-21T05:03:26.820Z,13.90
2023-05-21T05:08:29.812Z,14.00
2023-05-21T05:13:35.462Z,14.03
2023-05-21T05:18:38.586Z,14.08
2023-05-21T05:23:41.648Z,14.18
2023-05-21T05:28:46.934Z,14.24
2023-05-21T05:33:50.368Z,14.47
2023-05-21T05:38:53.605Z,14.62
2023-05-21T05:43:58.759Z,14.69
2023-05-21T05:49:05.484Z,14.76
2023-05-21T05:54:08.367Z,14.84
2023-05-21T05:59:14.133Z,14.85
2023-05-21T06:04:23.095Z,15.03
2023-05-21T06:09:26.058Z,15.05
2023-05-21T06:14:30.283Z,15.03
2023-05-21T06:19:33.179Z,15.13
2023-05-21T06:24:36.506Z,15.26
2023-05-21T06:29:42.203Z,15.26
2023-05-21T06:34:45.175Z,15.43
2023-05-21T06:39:48.530Z,15.60
2023-05-21T06:44:52.950Z,15.75
2023-05-21T06:50:04.049Z,15.96
2023-05-21T06:55:08.279Z,16.06
2023-05-21T07:00:36.552Z,16.15
2023-05-21T07:05:40.392Z,16.16
2023-05-21T07:10:43.449Z,16.15
2023-05-21T07:15:49.093Z,16.39
2023-05-21T07:20:52.050Z,16.64
2023-05-21T07:25:56.394Z,16.96
2023-05-21T07:31:01.012Z,17.28
2023-05-21T07:36:09.915Z,17.39
2023-05-21T07:41:12.898Z,17.53
2023-05-21T07:46:17.522Z,17.86
2023-05-21T07:51:21.934Z,18.24
2023-05-21T07:56:25.116Z,18.52
2023-05-21T08:01:29.982Z,18.44
2023-05-21T08:06:34.525Z,18.34
2023-05-21T08:11:37.919Z,18.58
2023-05-21T08:16:42.268Z,18.70
2023-05-21T08:21:45.204Z,18.70
2023-05-21T08:26:49.617Z,19.00
2023-05-21T08:31:53.937Z,19.09
2023-05-21T08:36:56.760Z,19.22
2023-05-21T08:42:36.454Z,19.23
2023-05-21T08:47:44.676Z,19.59
2023-05-21T08:52:48.476Z,19.97
2023-05-21T08:57:51.944Z,20.26
2023-05-21T09:02:56.492Z,20.43
2023-05-21T09:08:06.828Z,20.24
2023-05-21T09:13:21.770Z,20.24
2023-05-21T09:18:28.545Z,20.20
2023-05-21T09:23:41.007Z,20.55
2023-05-21T09:28:44.562Z,20.88
2023-05-21T09:33:49.038Z,20.96
2023-05-21T09:38:53.545Z,20.97
2023-05-21T09:44:00.278Z,21.14
2023-05-21T09:49:05.650Z,21.45
2023-05-21T09:54:12.368Z,21.93
2023-05-21T09:59:15.409Z,22.56
2023-05-21T10:04:20.094Z,23.33
2023-05-21T10:09:23.390Z,23.87
2023-05-21T10:14:28.747Z,24.42
2023-05-21T10:19:36.353Z,24.56
2023-05-21T10:24:40.655Z,24.82
2023-05-21T10:29:45.476Z,25.70
2023-05-21T10:34:50.472Z,26.21
2023-05-21T10:39:53.507Z,26.01
2023-05-21T10:45:11.387Z,25.62
2023-05-21T10:50:40.814Z,25.48
2023-05-21T10:55:58.394Z,25.47
2023-05-21T11:01:03.415Z,25.66
2023-05-21T11:06:08.490Z,25.71
2023-05-21T11:11:11.453Z,26.31
2023-05-21T11:16:18.603Z,26.01
2023-05-21T11:21:26.170Z,26.13
2023-05-21T11:26:30.588Z,25.85
2023-05-21T11:31:38.297Z,26.06
2023-05-21T11:36:45.625Z,26.06
2023-05-21T11:41:55.183Z,26.14
2023-05-21T11:46:58.899Z,26.39
2023-05-21T11:52:04.153Z,26.45
2023-05-21T11:57:08.031Z,26.28
2023-05-21T12:02:10.807Z,26.14
2023-05-21T12:07:16.062Z,26.13
2023-05-21T12:12:20.238Z,26.23
2023-05-21T12:17:24.920Z,26.23
2023-05-21T12:22:29.847Z,26.66
2023-05-21T12:27:34.721Z,26.92
2023-05-21T12:32:44.009Z,27.34
2023-05-21T12:37:48.335Z,28.05
2023-05-21T12:42:52.065Z,28.99
2023-05-21T12:47:56.492Z,28.97
2023-05-21T12:53:00.977Z,28.71
2023-05-21T12:58:05.403Z,27.64
2023-05-21T13:03:08.612Z,27.57
2023-05-21T13:08:14.353Z,27.80
2023-05-21T13:13:17.212Z,27.80
2023-05-21T13:18:20.845Z,27.47
2023-05-21T13:23:25.604Z,27.68
2023-05-21T13:28:29.285Z,27.25
2023-05-21T13:33:32.688Z,28.04
2023-05-21T13:38:36.954Z,28.41
2023-05-21T13:43:43.602Z,28.40
2023-05-21T13:48:46.394Z,29.33
2023-05-21T13:53:50.610Z,29.65
2023-05-21T13:58:53.414Z,29.58
2023-05-21T14:03:56.234Z,28.66
2023-05-21T14:09:00.538Z,29.14
2023-05-21T14:14:03.906Z,29.51
2023-05-21T14:19:06.756Z,29.72
2023-05-21T14:24:11.161Z,29.85
2023-05-21T14:29:14.041Z,29.31
2023-05-21T14:34:16.837Z,29.20
2023-05-21T14:39:21.027Z,29.20
2023-05-21T14:44:23.858Z,28.23
2023-05-21T14:49:26.725Z,27.53
2023-05-21T14:54:30.994Z,27.42
2023-05-21T14:59:33.871Z,27.67
2023-05-21T15:04:36.678Z,27.50
2023-05-21T15:09:41.018Z,27.34
2023-05-21T15:14:43.891Z,27.08
2023-05-21T15:19:46.739Z,27.82
2023-05-21T15:24:51.008Z,28.04
2023-05-21T15:29:53.943Z,27.56
2023-05-21T15:34:56.821Z,27.51
2023-05-21T15:40:01.139Z,27.18
2023-05-21T15:45:04.508Z,27.47
2023-05-21T15:50:09.362Z,27.21
2023-05-21T15:55:14.389Z,26.72
2023-05-21T16:00:17.632Z,26.50
2023-05-21T16:05:20.520Z,26.17
2023-05-21T16:10:24.859Z,26.35
2023-05-21T16:15:28.508Z,26.25
2023-05-21T16:20:31.355Z,26.20
2023-05-21T16:25:36.569Z,26.56
2023-05-21T16:30:39.764Z,26.83
2023-05-21T16:35:42.620Z,27.76
2023-05-21T16:40:47.205Z,28.79
2023-05-21T16:45:52.394Z,29.08
2023-05-21T16:50:55.317Z,28.93
2023-05-21T16:55:59.583Z,29.01
2023-05-21T17:01:03.796Z,29.24
2023-05-21T17:06:07.561Z,29.22
2023-05-21T17:11:12.016Z,28.53
2023-05-21T17:16:14.967Z,28.30
2023-05-21T17:21:18.491Z,28.86
2023-05-21T17:26:23.139Z,29.75
2023-05-21T17:31:26.055Z,30.37
2023-05-21T17:36:28.966Z,30.78
2023-05-21T17:41:33.182Z,30.61
2023-05-21T17:46:36.075Z,29.65
2023-05-21T17:51:39.573Z,28.38
2023-05-21T17:56:45.638Z,26.76
2023-05-21T18:01:49.385Z,25.85
2023-05-21T18:06:52.576Z,25.25
2023-05-21T18:11:58.209Z,24.85
2023-05-21T18:17:01.356Z,24.51
2023-05-21T18:22:05.059Z,24.22
2023-05-21T18:27:09.534Z,23.96
2023-05-21T18:32:14.364Z,23.77
2023-05-21T18:37:18.417Z,23.69
2023-05-21T18:42:22.649Z,23.55
2023-05-21T18:47:25.660Z,23.43
2023-05-21T18:52:28.570Z,23.39
2023-05-21T18:57:34.349Z,23.25
2023-05-21T19:02:38.405Z,23.09
2023-05-21T19:07:42.138Z,22.95
2023-05-21T19:12:46.765Z,22.83
2023-05-21T19:17:49.763Z,22.74
2023-05-21T19:22:52.671Z,22.60
2023-05-21T19:27:56.906Z,22.54
2023-05-21T19:32:59.884Z,22.50
2023-05-21T19:38:05.139Z,22.45
2023-05-21T19:43:09.737Z,22.34
2023-05-21T19:48:12.609Z,22.23
2023-05-21T19:53:15.563Z,22.16
2023-05-21T19:58:23.704Z,22.10
2023-05-21T20:03:28.007Z,22.13
2023-05-21T20:08:31.027Z,22.11
2023-05-21T20:13:35.301Z,22.08
2023-05-21T20:18:38.188Z,22.01
2023-05-21T20:23:41.200Z,22.02
2023-05-21T20:28:45.688Z,21.95
2023-05-21T20:33:50.642Z,21.92
2023-05-21T20:38:54.098Z,21.85
2023-05-21T20:43:58.972Z,21.81
2023-05-21T20:49:01.833Z,21.71
2023-05-21T20:54:04.822Z,21.67
2023-05-21T20:59:10.889Z,21.64
2023-05-21T21:04:14.274Z,21.62
2023-05-21T21:09:17.583Z,21.63
2023-05-21T21:14:21.832Z,21.64
2023-05-21T21:19:24.621Z,20.99
2023-05-21T21:24:27.464Z,20.42
2023-05-21T21:29:31.720Z,20.59
2023-05-21T21:34:34.609Z,20.53
2023-05-21T21:39:37.507Z,20.67
2023-05-21T21:44:42.130Z,20.75
2023-05-21T21:49:45.047Z,20.65
2023-05-21T21:54:48.145Z,20.61
2023-05-21T21:59:52.356Z,20.58
2023-05-21T22:04:55.752Z,20.50
2023-05-21T22:09:58.668Z,20.41
2023-05-21T22:15:05.374Z,20.31
2023-05-21T22:20:08.987Z,20.23
2023-05-21T22:25:11.779Z,20.17
2023-05-21T22:30:16.029Z,20.10
2023-05-21T22:35:19.727Z,20.16
2023-05-21T22:40:22.531Z,20.18
2023-05-21T22:45:26.687Z,20.17
2023-05-21T22:50:32.883Z,20.12
2023-05-21T22:55:35.863Z,20.15
2023-05-21T23:00:40.227Z,20.07
2023-05-21T23:05:43.427Z,20.04
2023-05-21T23:10:46.360Z,20.07
2023-05-21T23:15:51.438Z,20.10
2023-05-21T23:20:54.282Z,20.02
2023-05-21T23:25:57.726Z,19.93
2023-05-21T23:31:02.066Z,19.56
2023-05-21T23:36:05.193Z,19.19
2023-05-21T23:41:08.258Z,19.34
2023-05-21T23:46:12.509Z,19.33
2023-05-21T23:51:15.611Z,18.50
2023-05-21T23:56:18.365Z,17.72
